createdAt,value
2023-05-22T00:00:07.546Z,22.80
2023-05-22T00:02:43.442Z,22.78
2023-05-22T00:05:18.558Z,22.79
2023-05-22T00:07:51.738Z,22.76
2023-05-22T00:10:26.806Z,22.75
2023-05-22T00:12:54.032Z,22.74
2023-05-22T00:15:24.269Z,22.73
2023-05-22T00:17:54.181Z,22.74
2023-05-22T00:20:25.090Z,22.71
2023-05-22T00:22:55.788Z,22.71
2023-05-22T00:25:26.748Z,22.70
2023-05-22T00:27:54.343Z,22.74
2023-05-22T00:30:24.339Z,22.76
2023-05-22T00:32:55.869Z,22.77
2023-05-22T00:35:23.675Z,22.78
2023-05-22T00:37:52.956Z,22.79
2023-05-22T00:40:25.609Z,22.80
2023-05-22T00:42:55.231Z,22.79
2023-05-22T00:45:24.750Z,22.78
2023-05-22T00:47:55.138Z,22.79
2023-05-22T00:50:22.493Z,22.80
2023-05-22T00:52:52.246Z,22.79
2023-05-22T00:55:19.423Z,22.83
2023-05-22T00:57:46.998Z,22.84
2023-05-22T01:02:59.644Z,22.84
2023-05-22T01:05:43.390Z,22.79
2023-05-22T01:08:25.164Z,22.76
2023-05-22T01:11:11.999Z,22.80
2023-05-22T01:14:08.863Z,22.80
2023-05-22T01:17:06.811Z,22.75
2023-05-22T01:20:02.022Z,22.75
2023-05-22T01:23:16.529Z,22.72
2023-05-22T01:26:13.645Z,22.69
2023-05-22T01:28:56.250Z,22.73
2023-05-22T01:31:38.669Z,22.72
2023-05-22T01:34:18.313Z,22.77
2023-05-22T01:36:53.702Z,22.71
2023-05-22T01:39:23.759Z,22.71
2023-05-22T01:42:00.193Z,22.67
2023-05-22T01:44:31.239Z,22.69
2023-05-22T01:47:08.785Z,22.67
2023-05-22T01:49:43.200Z,22.61
2023-05-22T01:52:23.770Z,22.65
2023-05-22T01:55:10.214Z,22.65
2023-05-22T01:58:19.188Z,22.66
2023-05-22T02:01:04.029Z,22.62
2023-05-22T02:03:35.132Z,22.64
2023-05-22T02:06:07.098Z,22.58
2023-05-22T02:08:39.925Z,22.62
2023-05-22T02:11:14.363Z,22.63
2023-05-22T02:13:42.769Z,22.61
2023-05-22T02:16:12.637Z,22.59
2023-05-22T02:18:44.793Z,22.64
2023-05-22T02:21:12.497Z,22.65
2023-05-22T02:23:40.000Z,22.64
2023-05-22T02:26:07.183Z,22.65
2023-05-22T02:28:34.339Z,22.65
2023-05-22T02:31:03.029Z,22.64
2023-05-22T02:33:31.042Z,22.65
2023-05-22T02:36:01.521Z,22.64
2023-05-22T02:38:29.851Z,22.69
2023-05-22T02:40:56.934Z,22.64
2023-05-22T02:43:24.295Z,22.68
2023-05-22T02:45:51.679Z,22.67
2023-05-22T02:48:18.843Z,22.64
2023-05-22T02:50:48.596Z,22.65
2023-05-22T02:53:17.276Z,22.63
2023-05-22T02:55:44.447Z,22.64
2023-05-22T02:58:12.531Z,22.58
2023-05-22T03:00:57.246Z,22.59
2023-05-22T03:03:26.978Z,22.64
2023-05-22T03:06:01.580Z,22.63
2023-05-22T03:08:32.362Z,22.65
2023-05-22T03:11:03.976Z,22.66
2023-05-22T03:13:39.331Z,22.64
2023-05-22T03:16:15.716Z,22.65
2023-05-22T03:18:54.848Z,22.59
2023-05-22T03:21:27.428Z,22.64
2023-05-22T03:23:57.807Z,22.69
2023-05-22T03:26:28.537Z,22.68
2023-05-22T03:29:02.844Z,22.68
2023-05-22T03:31:37.357Z,22.64
2023-05-22T03:34:10.473Z,22.68
2023-05-22T03:36:46.256Z,22.68
2023-05-22T03:39:24.139Z,22.64
2023-05-22T03:42:06.187Z,22.49
2023-05-22T03:44:36.469Z,22.65
2023-05-22T03:47:04.465Z,22.59
2023-05-22T03:49:32.908Z,22.55
2023-05-22T03:52:03.370Z,22.60
2023-05-22T03:54:37.398Z,22.60
2023-05-22T03:57:09.264Z,22.58
2023-05-22T03:59:50.669Z,22.56
2023-05-22T04:02:35.452Z,22.59
2023-05-22T04:05:07.605Z,22.56
2023-05-22T04:07:38.236Z,22.61
2023-05-22T04:10:09.914Z,22.56
2023-05-22T04:12:38.361Z,22.52
2023-05-22T04:15:12.144Z,22.55
2023-05-22T04:17:44.528Z,22.61
2023-05-22T04:20:19.221Z,22.61
2023-05-22T04:22:50.241Z,22.61
2023-05-22T04:25:19.043Z,22.63
2023-05-22T04:27:50.930Z,22.65
2023-05-22T04:30:23.293Z,22.72
2023-05-22T04:32:51.781Z,22.71
2023-05-22T04:35:31.992Z,22.69
2023-05-22T04:38:11.723Z,22.69
2023-05-22T04:40:41.343Z,22.68
2023-05-22T04:43:11.870Z,22.70
2023-05-22T04:45:47.462Z,22.73
2023-05-22T04:48:24.155Z,22.75
2023-05-22T04:50:55.512Z,22.75
2023-05-22T04:53:36.199Z,22.74
2023-05-22T04:56:09.922Z,22.74
2023-05-22T04:58:42.057Z,22.72
2023-05-22T05:01:12.549Z,22.72
2023-05-22T05:03:48.920Z,22.71
2023-05-22T05:06:17.516Z,22.70
2023-05-22T05:08:47.069Z,22.72
2023-05-22T05:11:18.046Z,22.72
2023-05-22T05:13:56.666Z,22.71
2023-05-22T05:16:29.223Z,22.58
2023-05-22T05:19:06.672Z,22.72
2023-05-22T05:21:49.005Z,22.69
2023-05-22T05:24:27.055Z,22.65
2023-05-22T05:26:57.761Z,22.68
2023-05-22T05:29:33.238Z,22.71
2023-05-22T05:32:08.041Z,22.75
2023-05-22T05:34:49.067Z,22.76
2023-05-22T05:37:52.515Z,22.75
2023-05-22T05:40:25.509Z,22.52
2023-05-22T05:42:57.282Z,22.50
2023-05-22T05:45:27.086Z,22.58
2023-05-22T05:47:58.566Z,22.65
2023-05-22T05:50:25.961Z,22.72
2023-05-22T05:52:54.236Z,22.78
2023-05-22T05:55:25.362Z,22.76
2023-05-22T05:57:54.994Z,22.80
2023-05-22T06:00:30.905Z,22.75
2023-05-22T06:03:02.024Z,22.77
2023-05-22T06:05:46.155Z,22.70
2023-05-22T06:08:22.291Z,22.75
2023-05-22T06:10:50.227Z,22.79
2023-05-22T06:13:32.727Z,22.88
2023-05-22T06:16:02.837Z,22.86
2023-05-22T06:18:34.968Z,22.88
2023-05-22T06:21:05.137Z,22.93
2023-05-22T06:23:38.019Z,22.92
2023-05-22T06:26:05.608Z,22.89
2023-05-22T06:28:57.603Z,22.94
2023-05-22T06:31:26.262Z,22.92
2023-05-22T06:33:56.630Z,22.94
2023-05-22T06:36:27.200Z,22.97
2023-05-22T06:38:58.864Z,23.02
2023-05-22T06:41:52.021Z,23.04
2023-05-22T06:44:20.460Z,23.09
2023-05-22T06:46:58.001Z,23.11
2023-05-22T06:49:26.468Z,23.12
2023-05-22T06:51:55.611Z,23.09
2023-05-22T06:54:22.962Z,23.23
2023-05-22T06:56:57.289Z,23.18
2023-05-22T06:59:27.132Z,23.26
2023-05-22T07:01:54.450Z,23.28
2023-05-22T07:04:32.239Z,23.26
2023-05-22T07:07:07.305Z,23.30
2023-05-22T07:09:35.349Z,23.27
2023-05-22T07:12:15.516Z,23.29
2023-05-22T07:14:42.930Z,23.21
2023-05-22T07:17:10.396Z,23.08
2023-05-22T07:19:45.322Z,23.10
2023-05-22T07:22:12.800Z,23.18
2023-05-22T07:24:41.658Z,23.16
2023-05-22T07:27:09.744Z,23.18
2023-05-22T07:29:38.551Z,23.17
2023-05-22T07:32:07.552Z,23.11
2023-05-22T07:34:35.780Z,23.01
2023-05-22T07:37:09.525Z,22.93
2023-05-22T07:39:37.231Z,22.89
2023-05-22T07:42:06.555Z,22.89
2023-05-22T07:44:41.722Z,22.85
2023-05-22T07:47:18.113Z,22.88
2023-05-22T07:49:49.213Z,22.92
2023-05-22T07:52:16.520Z,22.86
2023-05-22T07:54:45.243Z,22.82
2023-05-22T07:57:16.185Z,22.76
2023-05-22T07:59:44.382Z,22.86
2023-05-22T08:02:12.115Z,22.92
2023-05-22T08:04:39.551Z,22.97
2023-05-22T08:07:07.524Z,23.01
2023-05-22T08:09:35.810Z,22.96
2023-05-22T08:12:07.541Z,23.05
2023-05-22T08:14:35.583Z,23.04
2023-05-22T08:17:03.100Z,23.05
2023-05-22T08:19:30.646Z,23.03
2023-05-22T08:21:58.582Z,23.01
2023-05-22T08:24:30.693Z,23.07
2023-05-22T08:26:59.442Z,23.06
2023-05-22T08:29:27.182Z,23.10
2023-05-22T08:31:57.277Z,23.05
2023-05-22T08:34:26.092Z,23.07
2023-05-22T08:36:53.260Z,22.88
2023-05-22T08:39:21.000Z,23.02
2023-05-22T08:41:49.446Z,23.02
2023-05-22T08:44:17.879Z,22.95
2023-05-22T08:46:49.974Z,22.99
2023-05-22T08:49:19.119Z,22.85
2023-05-22T08:51:53.672Z,22.88
2023-05-22T08:54:25.913Z,22.76
2023-05-22T08:56:59.305Z,22.76
2023-05-22T08:59:27.492Z,22.74
2023-05-22T09:01:55.554Z,22.62
2023-05-22T09:04:25.381Z,22.63
2023-05-22T09:07:06.180Z,22.65
2023-05-22T09:09:42.916Z,22.63
2023-05-22T09:12:11.204Z,22.70
2023-05-22T09:14:42.553Z,22.63
2023-05-22T09:17:14.533Z,22.56
2023-05-22T09:19:46.583Z,22.48
2023-05-22T09:22:27.379Z,22.53
2023-05-22T09:24:59.558Z,22.56
2023-05-22T09:27:28.516Z,22.57
2023-05-22T09:29:58.552Z,22.55
2023-05-22T09:32:30.194Z,22.49
2023-05-22T09:35:07.063Z,22.58
2023-05-22T09:37:36.362Z,22.65
2023-05-22T09:40:08.543Z,22.59
2023-05-22T09:42:36.253Z,22.70
2023-05-22T09:45:08.256Z,22.69
2023-05-22T09:47:36.640Z,22.70
2023-05-22T09:50:07.475Z,22.37
2023-05-22T09:52:38.614Z,22.81
2023-05-22T09:55:07.620Z,23.03
2023-05-22T09:57:46.806Z,23.10
2023-05-22T10:00:18.266Z,23.31
2023-05-22T10:03:12.512Z,23.47
2023-05-22T10:05:50.585Z,23.69
2023-05-22T10:08:45.973Z,24.10
2023-05-22T10:11:13.573Z,24.43
2023-05-22T10:13:45.135Z,24.56
2023-05-22T10:16:19.259Z,24.82
2023-05-22T10:18:49.339Z,25.03
2023-05-22T10:21:18.365Z,25.15
2023-05-22T10:23:46.305Z,25.20
2023-05-22T10:26:14.049Z,25.41
2023-05-22T10:28:48.209Z,25.66
2023-05-22T10:31:32.453Z,25.89
2023-05-22T10:34:05.927Z,26.16
2023-05-22T10:36:44.763Z,26.58
2023-05-22T10:39:24.633Z,26.50
2023-05-22T10:41:58.060Z,26.44
2023-05-22T10:44:25.513Z,26.38
2023-05-22T10:46:55.808Z,26.34
2023-05-22T10:49:24.912Z,26.32
2023-05-22T10:51:58.671Z,26.27
2023-05-22T10:54:46.247Z,26.34
2023-05-22T10:57:17.792Z,26.32
2023-05-22T10:59:48.147Z,26.75
2023-05-22T11:02:39.389Z,26.54
2023-05-22T11:05:19.204Z,26.58
2023-05-22T11:07:46.473Z,27.23
2023-05-22T11:10:14.219Z,27.34
2023-05-22T11:12:41.786Z,27.79
2023-05-22T11:15:10.864Z,28.21
2023-05-22T11:17:46.876Z,28.42
2023-05-22T11:20:19.149Z,28.34
2023-05-22T11:23:00.768Z,28.27
2023-05-22T11:25:29.632Z,28.43
2023-05-22T11:27:57.945Z,28.39
2023-05-22T11:30:29.095Z,28.43
2023-05-22T11:32:58.644Z,28.62
2023-05-22T11:35:26.826Z,28.51
2023-05-22T11:37:58.544Z,28.87
2023-05-22T11:40:29.800Z,28.94
2023-05-22T11:42:57.524Z,29.18
2023-05-22T11:45:25.468Z,29.12
2023-05-22T11:47:53.434Z,29.04
2023-05-22T11:50:40.201Z,29.57
2023-05-22T11:53:08.853Z,29.35
2023-05-22T11:55:38.971Z,29.58
2023-05-22T11:58:07.901Z,29.56
2023-05-22T12:00:44.248Z,29.43
2023-05-22T12:03:14.270Z,29.67
2023-05-22T12:05:47.470Z,29.89
2023-05-22T12:08:26.727Z,29.88
2023-05-22T12:11:02.034Z,30.01
2023-05-22T12:13:31.668Z,29.88
2023-05-22T12:16:06.441Z,30.17
2023-05-22T12:18:37.754Z,30.15
2023-05-22T12:21:09.198Z,29.96
2023-05-22T12:23:37.472Z,30.12
2023-05-22T12:26:19.047Z,30.12
2023-05-22T12:29:00.069Z,30.10
2023-05-22T12:31:39.140Z,30.14
2023-05-22T12:37:26.550Z,30.18
2023-05-22T12:40:08.989Z,29.82
2023-05-22T12:42:40.813Z,29.99
2023-05-22T12:45:18.285Z,30.06
2023-05-22T12:47:51.095Z,30.01
2023-05-22T12:50:43.113Z,29.85
2023-05-22T12:53:18.615Z,29.70
2023-05-22T12:56:00.511Z,29.85
2023-05-22T12:58:32.130Z,29.86
2023-05-22T13:01:04.746Z,29.79
2023-05-22T13:03:35.669Z,29.43
2023-05-22T13:06:06.341Z,29.67
2023-05-22T13:08:37.751Z,29.21
2023-05-22T13:11:14.441Z,29.03
2023-05-22T13:13:44.882Z,29.56
2023-05-22T13:16:21.876Z,29.43
2023-05-22T13:19:20.445Z,29.05
2023-05-22T13:21:57.618Z,29.36
2023-05-22T13:24:44.373Z,29.13
2023-05-22T13:27:19.301Z,29.05
2023-05-22T13:29:51.528Z,28.92
2023-05-22T13:32:39.868Z,27.98
2023-05-22T13:35:36.755Z,28.26
2023-05-22T13:38:36.998Z,28.28
2023-05-22T13:41:16.075Z,28.07
2023-05-22T13:43:46.726Z,28.47
2023-05-22T13:46:30.475Z,28.48
2023-05-22T13:49:07.945Z,28.61
2023-05-22T13:51:42.211Z,29.11
2023-05-22T13:54:19.442Z,29.07
2023-05-22T13:56:47.517Z,29.20
2023-05-22T13:59:15.393Z,29.44
2023-05-22T14:01:50.250Z,29.37
2023-05-22T14:04:18.209Z,29.64
2023-05-22T14:06:54.184Z,29.78
2023-05-22T14:09:35.434Z,29.20
2023-05-22T14:12:07.357Z,28.80
2023-05-22T14:14:49.917Z,28.11
2023-05-22T14:17:41.721Z,28.55
2023-05-22T14:20:16.026Z,28.25
2023-05-22T14:22:57.048Z,28.64
2023-05-22T14:28:42.100Z,28.17
2023-05-22T14:31:12.050Z,28.35
2023-05-22T14:33:51.203Z,28.27
2023-05-22T14:36:20.931Z,27.65
2023-05-22T14:38:53.505Z,28.16
2023-05-22T14:41:22.531Z,27.99
2023-05-22T14:43:52.557Z,27.70
2023-05-22T14:46:20.501Z,27.52
2023-05-22T14:48:48.164Z,27.33
2023-05-22T14:51:22.925Z,27.62
2023-05-22T14:53:58.192Z,27.28
2023-05-22T14:56:27.871Z,27.44
2023-05-22T14:59:01.210Z,27.55
2023-05-22T15:01:35.596Z,27.13
2023-05-22T15:04:33.948Z,27.19
2023-05-22T15:07:22.354Z,27.34
2023-05-22T15:10:13.936Z,27.36
2023-05-22T15:12:57.810Z,27.04
2023-05-22T15:15:27.544Z,27.09
2023-05-22T15:17:57.958Z,26.94
2023-05-22T15:20:27.140Z,27.11
2023-05-22T15:22:54.966Z,26.95
2023-05-22T15:25:26.176Z,27.07
2023-05-22T15:27:53.751Z,27.16
2023-05-22T15:33:47.224Z,27.18
2023-05-22T15:39:13.449Z,27.01
2023-05-22T15:41:51.598Z,27.25
2023-05-22T15:44:47.528Z,27.14
2023-05-22T15:47:17.605Z,27.14
2023-05-22T15:49:48.190Z,26.87
2023-05-22T15:52:16.463Z,26.96
2023-05-22T15:54:51.156Z,26.54
2023-05-22T15:57:18.973Z,26.78
2023-05-22T15:59:54.034Z,26.84
2023-05-22T16:02:29.140Z,26.51
2023-05-22T16:04:59.420Z,26.41
2023-05-22T16:07:26.964Z,26.39
2023-05-22T16:09:54.653Z,26.47
2023-05-22T16:12:22.832Z,26.45
2023-05-22T16:14:50.887Z,26.76
2023-05-22T16:17:22.172Z,26.55
2023-05-22T16:19:54.493Z,26.32
2023-05-22T16:22:30.352Z,26.44
2023-05-22T16:25:03.989Z,26.28
2023-05-22T16:27:31.381Z,26.32
2023-05-22T16:30:03.229Z,26.12
2023-05-22T16:32:30.948Z,26.20
2023-05-22T16:34:58.271Z,26.21
2023-05-22T16:37:25.878Z,26.13
2023-05-22T16:39:53.323Z,25.51
2023-05-22T16:42:20.781Z,25.91
2023-05-22T16:44:48.865Z,25.92
2023-05-22T16:47:21.865Z,25.98
2023-05-22T16:49:50.121Z,26.20
2023-05-22T16:52:18.257Z,25.90
2023-05-22T16:54:45.930Z,25.76
2023-05-22T16:57:13.126Z,25.70
2023-05-22T16:59:41.495Z,25.40
2023-05-22T17:02:09.438Z,25.39
2023-05-22T17:04:37.472Z,25.40
2023-05-22T17:07:05.160Z,25.32
2023-05-22T17:09:33.673Z,25.23
2023-05-22T17:12:03.685Z,25.23
2023-05-22T17:14:31.805Z,25.32
2023-05-22T17:16:59.190Z,25.15
2023-05-22T17:19:26.838Z,25.12
2023-05-22T17:21:56.360Z,25.01
2023-05-22T17:24:24.165Z,25.02
2023-05-22T17:26:55.966Z,24.92
2023-05-22T17:29:24.516Z,25.04
2023-05-22T17:31:53.056Z,25.01
2023-05-22T17:34:20.987Z,24.86
2023-05-22T17:37:06.237Z,25.00
2023-05-22T17:39:36.755Z,24.92
2023-05-22T17:42:04.440Z,24.98
2023-05-22T17:44:31.809Z,25.01
2023-05-22T17:46:59.127Z,24.93
2023-05-22T17:49:26.359Z,24.78
2023-05-22T17:51:54.003Z,25.00
2023-05-22T17:54:21.654Z,24.90
2023-05-22T17:56:49.198Z,24.97
2023-05-22T17:59:16.923Z,24.89
2023-05-22T18:01:48.057Z,24.98
2023-05-22T18:04:18.877Z,24.63
2023-05-22T18:06:46.476Z,24.84
2023-05-22T18:09:13.763Z,24.86
2023-05-22T18:11:48.502Z,24.82
2023-05-22T18:14:16.548Z,24.69
2023-05-22T18:16:43.943Z,24.68
2023-05-22T18:19:12.055Z,24.70
2023-05-22T18:21:42.544Z,24.70
2023-05-22T18:24:10.369Z,24.84
2023-05-22T18:26:39.199Z,24.84
2023-05-22T18:29:06.715Z,24.86
2023-05-22T18:31:36.600Z,24.83
2023-05-22T18:34:06.876Z,24.70
2023-05-22T18:36:36.854Z,24.77
2023-05-22T18:39:07.531Z,24.71
2023-05-22T18:41:39.616Z,24.75
2023-05-22T18:44:08.731Z,24.58
2023-05-22T18:46:36.376Z,24.70
2023-05-22T18:49:04.637Z,24.65
2023-05-22T18:51:37.146Z,24.70
2023-05-22T18:54:11.269Z,24.66
2023-05-22T18:56:39.537Z,24.66
2023-05-22T18:59:06.912Z,24.68
2023-05-22T19:01:37.467Z,24.66
2023-05-22T19:04:07.116Z,24.65
2023-05-22T19:06:38.551Z,24.65
2023-05-22T19:09:06.248Z,24.60
2023-05-22T19:11:36.128Z,24.58
2023-05-22T19:14:06.528Z,24.55
2023-05-22T19:16:36.878Z,24.56
2023-05-22T19:19:07.005Z,24.45
2023-05-22T19:21:38.842Z,24.40
2023-05-22T19:24:07.301Z,24.44
2023-05-22T19:26:41.551Z,24.36
2023-05-22T19:29:10.761Z,24.39
2023-05-22T19:31:41.221Z,24.22
2023-05-22T19:34:08.685Z,24.29
2023-05-22T19:36:44.456Z,24.19
2023-05-22T19:39:14.344Z,24.03
2023-05-22T19:42:03.719Z,24.03
2023-05-22T19:44:50.154Z,24.03
2023-05-22T19:50:20.697Z,24.19
2023-05-22T19:52:54.947Z,24.18
2023-05-22T19:55:29.204Z,24.19
2023-05-22T19:58:10.746Z,24.08
2023-05-22T20:00:42.193Z,24.12
2023-05-22T20:03:15.018Z,24.13
2023-05-22T20:05:54.351Z,24.07
2023-05-22T20:08:26.024Z,24.12
2023-05-22T20:11:23.857Z,24.11
2023-05-22T20:17:06.650Z,24.15
2023-05-22T20:20:00.855Z,24.09
2023-05-22T20:22:38.581Z,24.08
2023-05-22T20:25:38.381Z,24.05
2023-05-22T20:28:17.276Z,24.07
2023-05-22T20:30:57.442Z,24.09
2023-05-22T20:33:33.917Z,24.02
2023-05-22T20:36:22.385Z,24.05
2023-05-22T20:39:16.590Z,24.04
2023-05-22T20:42:02.336Z,24.03
2023-05-22T20:47:36.983Z,24.00
2023-05-22T20:50:18.097Z,23.99
2023-05-22T20:52:50.417Z,23.98
2023-05-22T20:55:31.942Z,23.93
2023-05-22T20:58:24.633Z,23.93
2023-05-22T21:01:10.772Z,23.89
2023-05-22T21:03:55.021Z,23.95
2023-05-22T21:06:26.208Z,23.92
2023-05-22T21:09:05.878Z,23.92
2023-05-22T21:11:50.152Z,23.98
2023-05-22T21:14:25.768Z,23.96
2023-05-22T21:17:03.525Z,23.88
2023-05-22T21:19:42.771Z,23.88
2023-05-22T21:22:18.339Z,23.84
2023-05-22T21:24:49.515Z,23.88
2023-05-22T21:27:30.520Z,23.88
2023-05-22T21:30:11.447Z,23.90
2023-05-22T21:33:02.274Z,23.94
2023-05-22T21:35:43.617Z,23.92
2023-05-22T21:38:27.845Z,23.87
2023-05-22T21:41:25.588Z,23.85
2023-05-22T21:43:55.989Z,23.80
2023-05-22T21:46:28.425Z,23.70
2023-05-22T21:49:18.678Z,23.70
2023-05-22T21:51:50.961Z,23.64
2023-05-22T21:54:27.371Z,23.67
2023-05-22T21:57:17.448Z,23.64
2023-05-22T21:59:56.733Z,23.61
2023-05-22T22:02:31.001Z,23.62
2023-05-22T22:05:10.168Z,23.59
2023-05-22T22:07:48.799Z,23.58
2023-05-22T22:10:30.261Z,23.55
2023-05-22T22:13:04.276Z,23.54
2023-05-22T22:15:43.850Z,23.50
2023-05-22T22:18:21.317Z,23.52
2023-05-22T22:21:04.959Z,23.52
2023-05-22T22:23:42.958Z,23.49
2023-05-22T22:26:25.680Z,23.41
2023-05-22T22:28:59.279Z,23.42
2023-05-22T22:31:42.150Z,23.41
2023-05-22T22:34:18.925Z,23.35
2023-05-22T22:36:55.320Z,23.33
2023-05-22T22:39:28.236Z,23.34
2023-05-22T22:42:06.612Z,23.31
2023-05-22T22:44:46.832Z,23.29
2023-05-22T22:47:19.789Z,23.19
2023-05-22T22:49:59.746Z,23.17
2023-05-22T22:52:42.198Z,23.15
2023-05-22T22:55:17.107Z,23.04
2023-05-22T22:57:53.548Z,23.06
2023-05-22T23:00:29.806Z,23.07
2023-05-22T23:03:10.957Z,22.96
2023-05-22T23:05:48.339Z,22.96
2023-05-22T23:08:30.283Z,22.94
2023-05-22T23:11:14.761Z,22.85
2023-05-22T23:13:52.072Z,22.92
2023-05-22T23:16:29.051Z,22.76
2023-05-22T23:19:17.675Z,22.75
2023-05-22T23:21:55.750Z,22.80
2023-05-22T23:24:41.245Z,22.80
2023-05-22T23:27:15.829Z,22.76
2023-05-22T23:29:54.518Z,22.67
2023-05-22T23:32:28.919Z,22.70
2023-05-22T23:35:09.904Z,22.73
2023-05-22T23:37:48.675Z,22.73
2023-05-22T23:40:30.420Z,22.78
2023-05-22T23:43:11.929Z,22.74
2023-05-22T23:45:50.988Z,22.74
2023-05-22T23:48:37.545Z,22.70
2023-05-22T23:51:17.431Z,22.71
2023-05-22T23:53:56.910Z,22.71
2023-05-22T23:56:31.847Z,22.73
2023-05-22T23:59:08.336Z,22.69
